DK-0016 weather

Sølager flyveplads
Denmark

Public forecast

Using degrees Celsius for public forecast. Weather courtesy of forecast.io.

METAR (pilot weather report)

Closest report is Copenhagen Roskilde Airport, 23.0 nm (42.5 km) SSE. Retrieved 2019/07/21 18:20 UTC (0 seconds ago):

EKRK 211820Z AUTO 29015KT 9999 SCT024/// 18/12 Q1018

TAF (pilot weather forecast)

Closest forecast is Copenhagen Kastrup Airport, 31.7 nm (58.8 km) SE. Retrieved 2019/07/21 18:30 UTC (0 seconds ago):

TAF EKCH 211707Z 2118/2218 28010KT 9999 SCT020